sensor_id;sensor_type;location;lat;lon;timestamp;P1;durP1;ratioP1;P2;durP2;ratioP2
58820;SDS011;70670;52.476;13.334;2024-03-08T00:00:16;37.10;;;19.27;;
58820;SDS011;70670;52.476;13.334;2024-03-08T00:03:05;35.85;;;18.33;;
58820;SDS011;70670;52.476;13.334;2024-03-08T00:05:31;39.30;;;18.48;;
58820;SDS011;70670;52.476;13.334;2024-03-08T00:07:56;40.13;;;19.30;;
58820;SDS011;70670;52.476;13.334;2024-03-08T00:10:22;35.10;;;17.85;;
58820;SDS011;70670;52.476;13.334;2024-03-08T00:12:48;39.70;;;19.60;;
58820;SDS011;70670;52.476;13.334;2024-03-08T00:15:14;38.55;;;20.02;;
58820;SDS011;70670;52.476;13.334;2024-03-08T00:17:41;35.33;;;18.95;;
58820;SDS011;70670;52.476;13.334;2024-03-08T00:20:07;41.15;;;19.08;;
58820;SDS011;70670;52.476;13.334;2024-03-08T00:22:39;36.92;;;18.55;;
58820;SDS011;70670;52.476;13.334;2024-03-08T00:25:05;36.72;;;18.27;;
58820;SDS011;70670;52.476;13.334;2024-03-08T00:27:33;39.45;;;19.38;;
58820;SDS011;70670;52.476;13.334;2024-03-08T00:30:00;39.47;;;19.30;;
58820;SDS011;70670;52.476;13.334;2024-03-08T00:32:25;35.75;;;18.83;;
58820;SDS011;70670;52.476;13.334;2024-03-08T00:34:55;36.92;;;18.75;;
58820;SDS011;70670;52.476;13.334;2024-03-08T00:37:21;37.00;;;18.67;;
58820;SDS011;70670;52.476;13.334;2024-03-08T00:39:50;35.38;;;18.95;;
58820;SDS011;70670;52.476;13.334;2024-03-08T00:42:20;41.15;;;19.35;;
58820;SDS011;70670;52.476;13.334;2024-03-08T00:47:11;36.17;;;18.77;;
58820;SDS011;70670;52.476;13.334;2024-03-08T00:49:37;34.88;;;17.95;;
58820;SDS011;70670;52.476;13.334;2024-03-08T00:52:03;41.65;;;19.88;;
58820;SDS011;70670;52.476;13.334;2024-03-08T00:56:58;44.67;;;21.15;;
58820;SDS011;70670;52.476;13.334;2024-03-08T00:59:23;39.60;;;18.88;;
58820;SDS011;70670;52.476;13.334;2024-03-08T01:01:49;34.00;;;18.08;;
58820;SDS011;70670;52.476;13.334;2024-03-08T01:04:15;43.70;;;19.17;;
58820;SDS011;70670;52.476;13.334;2024-03-08T01:06:40;41.15;;;19.70;;
58820;SDS011;70670;52.476;13.334;2024-03-08T01:09:08;36.53;;;18.80;;
58820;SDS011;70670;52.476;13.334;2024-03-08T01:11:34;39.63;;;18.67;;
58820;SDS011;70670;52.476;13.334;2024-03-08T01:14:00;36.47;;;18.98;;
58820;SDS011;70670;52.476;13.334;2024-03-08T01:16:26;36.92;;;18.40;;
58820;SDS011;70670;52.476;13.334;2024-03-08T01:18:52;40.78;;;19.48;;
58820;SDS011;70670;52.476;13.334;2024-03-08T01:21:17;44.20;;;19.02;;
58820;SDS011;70670;52.476;13.334;2024-03-08T01:23:43;35.22;;;18.65;;
58820;SDS011;70670;52.476;13.334;2024-03-08T01:26:09;37.78;;;18.98;;
58820;SDS011;70670;52.476;13.334;2024-03-08T01:28:34;35.17;;;18.65;;
58820;SDS011;70670;52.476;13.334;2024-03-08T01:31:00;36.45;;;18.88;;
58820;SDS011;70670;52.476;13.334;2024-03-08T01:33:26;38.63;;;19.58;;
58820;SDS011;70670;52.476;13.334;2024-03-08T01:35:55;37.03;;;19.20;;
58820;SDS011;70670;52.476;13.334;2024-03-08T01:38:22;39.53;;;19.52;;
58820;SDS011;70670;52.476;13.334;2024-03-08T01:40:48;38.83;;;18.88;;
58820;SDS011;70670;52.476;13.334;2024-03-08T01:43:48;37.30;;;19.30;;
58820;SDS011;70670;52.476;13.334;2024-03-08T01:46:06;36.15;;;18.48;;
58820;SDS011;70670;52.476;13.334;2024-03-08T01:48:34;38.90;;;19.02;;
58820;SDS011;70670;52.476;13.334;2024-03-08T01:50:59;34.00;;;17.60;;
58820;SDS011;70670;52.476;13.334;2024-03-08T01:53:28;40.13;;;19.17;;
58820;SDS011;70670;52.476;13.334;2024-03-08T01:55:56;35.45;;;18.48;;
58820;SDS011;70670;52.476;13.334;2024-03-08T01:58:23;43.38;;;20.20;;
58820;SDS011;70670;52.476;13.334;2024-03-08T02:00:50;43.17;;;18.75;;
58820;SDS011;70670;52.476;13.334;2024-03-08T02:03:18;40.20;;;18.02;;
58820;SDS011;70670;52.476;13.334;2024-03-08T02:05:44;37.72;;;19.17;;
58820;SDS011;70670;52.476;13.334;2024-03-08T02:08:10;34.90;;;17.42;;
58820;SDS011;70670;52.476;13.334;2024-03-08T02:10:39;42.63;;;18.70;;
58820;SDS011;70670;52.476;13.334;2024-03-08T02:13:07;36.78;;;17.95;;
58820;SDS011;70670;52.476;13.334;2024-03-08T02:18:19;45.08;;;20.27;;
58820;SDS011;70670;52.476;13.334;2024-03-08T02:20:49;39.72;;;18.42;;
58820;SDS011;70670;52.476;13.334;2024-03-08T02:23:15;40.92;;;19.88;;
58820;SDS011;70670;52.476;13.334;2024-03-08T02:25:40;37.88;;;19.08;;
58820;SDS011;70670;52.476;13.334;2024-03-08T02:28:11;38.63;;;19.38;;
58820;SDS011;70670;52.476;13.334;2024-03-08T02:30:37;38.53;;;19.10;;
58820;SDS011;70670;52.476;13.334;2024-03-08T02:33:06;38.85;;;19.23;;
58820;SDS011;70670;52.476;13.334;2024-03-08T02:35:34;39.35;;;19.35;;
58820;SDS011;70670;52.476;13.334;2024-03-08T02:38:01;40.50;;;19.38;;
58820;SDS011;70670;52.476;13.334;2024-03-08T02:40:29;42.38;;;19.90;;
58820;SDS011;70670;52.476;13.334;2024-03-08T02:42:54;38.92;;;18.02;;
58820;SDS011;70670;52.476;13.334;2024-03-08T02:45:20;35.75;;;18.63;;
58820;SDS011;70670;52.476;13.334;2024-03-08T02:47:46;40.72;;;19.80;;
58820;SDS011;70670;52.476;13.334;2024-03-08T02:50:11;38.05;;;18.90;;
58820;SDS011;70670;52.476;13.334;2024-03-08T02:52:41;42.05;;;20.55;;
58820;SDS011;70670;52.476;13.334;2024-03-08T02:55:07;38.53;;;18.40;;
58820;SDS011;70670;52.476;13.334;2024-03-08T02:57:36;38.72;;;18.70;;
58820;SDS011;70670;52.476;13.334;2024-03-08T03:00:02;40.80;;;18.65;;
58820;SDS011;70670;52.476;13.334;2024-03-08T03:02:29;39.42;;;19.23;;
58820;SDS011;70670;52.476;13.334;2024-03-08T03:04:54;38.42;;;18.75;;
58820;SDS011;70670;52.476;13.334;2024-03-08T03:07:21;37.22;;;18.60;;
58820;SDS011;70670;52.476;13.334;2024-03-08T03:09:46;42.35;;;19.45;;
58820;SDS011;70670;52.476;13.334;2024-03-08T03:12:12;39.28;;;19.73;;
58820;SDS011;70670;52.476;13.334;2024-03-08T03:14:40;35.83;;;19.25;;
58820;SDS011;70670;52.476;13.334;2024-03-08T03:17:06;40.42;;;19.55;;
58820;SDS011;70670;52.476;13.334;2024-03-08T03:19:31;40.42;;;19.58;;
58820;SDS011;70670;52.476;13.334;2024-03-08T03:21:57;44.75;;;19.92;;
58820;SDS011;70670;52.476;13.334;2024-03-08T03:24:22;37.25;;;18.98;;
58820;SDS011;70670;52.476;13.334;2024-03-08T03:26:49;40.22;;;20.27;;
58820;SDS011;70670;52.476;13.334;2024-03-08T03:29:15;44.35;;;20.88;;
58820;SDS011;70670;52.476;13.334;2024-03-08T03:31:42;40.38;;;20.40;;
58820;SDS011;70670;52.476;13.334;2024-03-08T03:34:10;40.97;;;20.13;;
58820;SDS011;70670;52.476;13.334;2024-03-08T03:36:37;39.08;;;18.80;;
58820;SDS011;70670;52.476;13.334;2024-03-08T03:39:07;38.53;;;19.50;;
58820;SDS011;70670;52.476;13.334;2024-03-08T03:41:44;38.83;;;20.20;;
58820;SDS011;70670;52.476;13.334;2024-03-08T03:44:11;42.65;;;20.30;;
58820;SDS011;70670;52.476;13.334;2024-03-08T03:46:37;41.08;;;19.42;;
58820;SDS011;70670;52.476;13.334;2024-03-08T03:49:02;45.40;;;19.80;;
58820;SDS011;70670;52.476;13.334;2024-03-08T03:51:29;40.53;;;19.92;;
58820;SDS011;70670;52.476;13.334;2024-03-08T03:53:55;39.58;;;19.95;;
58820;SDS011;70670;52.476;13.334;2024-03-08T03:56:26;41.78;;;20.55;;
58820;SDS011;70670;52.476;13.334;2024-03-08T03:58:51;37.25;;;19.45;;
58820;SDS011;70670;52.476;13.334;2024-03-08T04:01:17;43.40;;;20.50;;
58820;SDS011;70670;52.476;13.334;2024-03-08T04:03:43;39.45;;;19.17;;
58820;SDS011;70670;52.476;13.334;2024-03-08T04:06:09;43.75;;;21.05;;
58820;SDS011;70670;52.476;13.334;2024-03-08T04:08:34;39.75;;;19.65;;
58820;SDS011;70670;52.476;13.334;2024-03-08T04:11:00;41.58;;;20.85;;
58820;SDS011;70670;52.476;13.334;2024-03-08T04:13:26;44.83;;;21.00;;
58820;SDS011;70670;52.476;13.334;2024-03-08T04:15:52;44.42;;;21.60;;
58820;SDS011;70670;52.476;13.334;2024-03-08T04:18:17;44.22;;;20.50;;
58820;SDS011;70670;52.476;13.334;2024-03-08T04:20:46;42.80;;;21.27;;
58820;SDS011;70670;52.476;13.334;2024-03-08T04:23:11;45.72;;;20.65;;
58820;SDS011;70670;52.476;13.334;2024-03-08T04:25:37;46.55;;;20.50;;
58820;SDS011;70670;52.476;13.334;2024-03-08T04:28:03;44.90;;;22.05;;
58820;SDS011;70670;52.476;13.334;2024-03-08T04:30:29;43.30;;;21.52;;
58820;SDS011;70670;52.476;13.334;2024-03-08T04:32:55;46.75;;;21.52;;
58820;SDS011;70670;52.476;13.334;2024-03-08T04:35:21;44.28;;;23.13;;
58820;SDS011;70670;52.476;13.334;2024-03-08T04:37:46;45.88;;;22.70;;
58820;SDS011;70670;52.476;13.334;2024-03-08T04:40:12;46.30;;;22.27;;
58820;SDS011;70670;52.476;13.334;2024-03-08T04:42:38;45.05;;;22.48;;
58820;SDS011;70670;52.476;13.334;2024-03-08T04:45:05;45.60;;;23.23;;
58820;SDS011;70670;52.476;13.334;2024-03-08T04:47:33;47.78;;;22.58;;
58820;SDS011;70670;52.476;13.334;2024-03-08T04:49:59;51.22;;;23.33;;
58820;SDS011;70670;52.476;13.334;2024-03-08T04:52:24;48.50;;;23.92;;
58820;SDS011;70670;52.476;13.334;2024-03-08T04:54:51;50.75;;;24.30;;
58820;SDS011;70670;52.476;13.334;2024-03-08T04:57:16;50.50;;;23.38;;
58820;SDS011;70670;52.476;13.334;2024-03-08T04:59:43;52.08;;;24.85;;
58820;SDS011;70670;52.476;13.334;2024-03-08T05:02:09;51.50;;;23.58;;
58820;SDS011;70670;52.476;13.334;2024-03-08T05:04:34;52.33;;;25.17;;
58820;SDS011;70670;52.476;13.334;2024-03-08T05:07:01;53.55;;;25.33;;
58820;SDS011;70670;52.476;13.334;2024-03-08T05:09:27;51.65;;;24.13;;
58820;SDS011;70670;52.476;13.334;2024-03-08T05:11:54;49.72;;;23.50;;
58820;SDS011;70670;52.476;13.334;2024-03-08T05:14:19;57.78;;;26.15;;
58820;SDS011;70670;52.476;13.334;2024-03-08T05:16:48;53.03;;;24.52;;
58820;SDS011;70670;52.476;13.334;2024-03-08T05:19:20;53.20;;;24.48;;
58820;SDS011;70670;52.476;13.334;2024-03-08T05:21:46;48.80;;;24.13;;
58820;SDS011;70670;52.476;13.334;2024-03-08T05:24:13;53.45;;;23.50;;
58820;SDS011;70670;52.476;13.334;2024-03-08T05:26:39;52.90;;;25.35;;
58820;SDS011;70670;52.476;13.334;2024-03-08T05:29:05;56.92;;;25.27;;
58820;SDS011;70670;52.476;13.334;2024-03-08T05:31:35;51.15;;;24.27;;
58820;SDS011;70670;52.476;13.334;2024-03-08T05:34:08;51.40;;;24.50;;
58820;SDS011;70670;52.476;13.334;2024-03-08T05:36:35;51.53;;;24.67;;
58820;SDS011;70670;52.476;13.334;2024-03-08T05:39:01;55.65;;;26.02;;
58820;SDS011;70670;52.476;13.334;2024-03-08T05:41:26;53.13;;;25.10;;
58820;SDS011;70670;52.476;13.334;2024-03-08T05:43:52;57.15;;;24.73;;
58820;SDS011;70670;52.476;13.334;2024-03-08T05:46:18;52.28;;;24.65;;
58820;SDS011;70670;52.476;13.334;2024-03-08T05:48:44;50.53;;;24.83;;
58820;SDS011;70670;52.476;13.334;2024-03-08T05:51:10;56.17;;;25.60;;
58820;SDS011;70670;52.476;13.334;2024-03-08T05:53:37;53.28;;;24.55;;
58820;SDS011;70670;52.476;13.334;2024-03-08T05:56:03;56.45;;;25.70;;
58820;SDS011;70670;52.476;13.334;2024-03-08T05:58:28;55.30;;;26.00;;
58820;SDS011;70670;52.476;13.334;2024-03-08T06:00:57;53.63;;;25.17;;
58820;SDS011;70670;52.476;13.334;2024-03-08T06:03:22;55.10;;;24.88;;
58820;SDS011;70670;52.476;13.334;2024-03-08T06:05:48;55.80;;;25.02;;
58820;SDS011;70670;52.476;13.334;2024-03-08T06:08:15;57.47;;;25.27;;
58820;SDS011;70670;52.476;13.334;2024-03-08T06:10:40;56.95;;;26.25;;
58820;SDS011;70670;52.476;13.334;2024-03-08T06:13:06;56.17;;;25.90;;
58820;SDS011;70670;52.476;13.334;2024-03-08T06:15:32;54.10;;;24.88;;
58820;SDS011;70670;52.476;13.334;2024-03-08T06:17:57;67.28;;;28.20;;
58820;SDS011;70670;52.476;13.334;2024-03-08T06:20:23;57.55;;;27.05;;
58820;SDS011;70670;52.476;13.334;2024-03-08T06:22:51;56.58;;;25.27;;
58820;SDS011;70670;52.476;13.334;2024-03-08T06:25:17;56.15;;;26.48;;
58820;SDS011;70670;52.476;13.334;2024-03-08T06:27:43;61.17;;;26.27;;
58820;SDS011;70670;52.476;13.334;2024-03-08T06:30:09;59.28;;;26.35;;
58820;SDS011;70670;52.476;13.334;2024-03-08T06:32:36;57.92;;;27.63;;
58820;SDS011;70670;52.476;13.334;2024-03-08T06:35:02;54.63;;;25.55;;
58820;SDS011;70670;52.476;13.334;2024-03-08T06:37:32;50.25;;;25.00;;
58820;SDS011;70670;52.476;13.334;2024-03-08T06:39:57;49.88;;;25.02;;
58820;SDS011;70670;52.476;13.334;2024-03-08T06:42:23;51.45;;;25.33;;
58820;SDS011;70670;52.476;13.334;2024-03-08T06:44:49;57.58;;;26.50;;
58820;SDS011;70670;52.476;13.334;2024-03-08T06:47:15;52.22;;;26.33;;
58820;SDS011;70670;52.476;13.334;2024-03-08T06:49:42;51.10;;;25.15;;
58820;SDS011;70670;52.476;13.334;2024-03-08T06:52:09;55.70;;;25.00;;
58820;SDS011;70670;52.476;13.334;2024-03-08T06:54:35;51.53;;;25.45;;
58820;SDS011;70670;52.476;13.334;2024-03-08T06:57:02;51.85;;;25.27;;
58820;SDS011;70670;52.476;13.334;2024-03-08T06:59:28;57.53;;;26.70;;
58820;SDS011;70670;52.476;13.334;2024-03-08T07:01:54;50.72;;;24.88;;
58820;SDS011;70670;52.476;13.334;2024-03-08T07:04:20;55.72;;;25.30;;
58820;SDS011;70670;52.476;13.334;2024-03-08T07:06:47;55.22;;;24.92;;
58820;SDS011;70670;52.476;13.334;2024-03-08T07:09:15;54.90;;;26.25;;
58820;SDS011;70670;52.476;13.334;2024-03-08T07:11:42;49.80;;;24.58;;
58820;SDS011;70670;52.476;13.334;2024-03-08T07:14:08;56.55;;;24.60;;
58820;SDS011;70670;52.476;13.334;2024-03-08T07:16:34;52.42;;;24.02;;
58820;SDS011;70670;52.476;13.334;2024-03-08T07:19:03;51.20;;;23.17;;
58820;SDS011;70670;52.476;13.334;2024-03-08T07:21:30;44.67;;;22.50;;
58820;SDS011;70670;52.476;13.334;2024-03-08T07:23:56;47.97;;;23.45;;
58820;SDS011;70670;52.476;13.334;2024-03-08T07:26:25;50.53;;;23.80;;
58820;SDS011;70670;52.476;13.334;2024-03-08T07:28:50;48.80;;;23.58;;
58820;SDS011;70670;52.476;13.334;2024-03-08T07:31:16;41.47;;;21.27;;
58820;SDS011;70670;52.476;13.334;2024-03-08T07:33:59;49.60;;;21.98;;
58820;SDS011;70670;52.476;13.334;2024-03-08T07:36:25;52.97;;;24.30;;
58820;SDS011;70670;52.476;13.334;2024-03-08T07:38:51;44.80;;;21.98;;
58820;SDS011;70670;52.476;13.334;2024-03-08T07:41:17;49.28;;;23.42;;
58820;SDS011;70670;52.476;13.334;2024-03-08T07:43:42;47.83;;;22.48;;
58820;SDS011;70670;52.476;13.334;2024-03-08T07:46:09;46.35;;;22.13;;
58820;SDS011;70670;52.476;13.334;2024-03-08T07:48:35;46.05;;;24.00;;
58820;SDS011;70670;52.476;13.334;2024-03-08T07:51:02;49.55;;;22.60;;
58820;SDS011;70670;52.476;13.334;2024-03-08T07:53:28;49.50;;;23.02;;
58820;SDS011;70670;52.476;13.334;2024-03-08T07:55:54;47.72;;;22.88;;
58820;SDS011;70670;52.476;13.334;2024-03-08T07:58:19;47.78;;;22.73;;
58820;SDS011;70670;52.476;13.334;2024-03-08T08:00:45;51.38;;;22.90;;
58820;SDS011;70670;52.476;13.334;2024-03-08T08:03:11;43.97;;;22.25;;
58820;SDS011;70670;52.476;13.334;2024-03-08T08:05:38;47.17;;;23.40;;
58820;SDS011;70670;52.476;13.334;2024-03-08T08:08:04;45.88;;;23.35;;
58820;SDS011;70670;52.476;13.334;2024-03-08T08:10:32;43.38;;;23.20;;
58820;SDS011;70670;52.476;13.334;2024-03-08T08:12:58;48.30;;;23.58;;
58820;SDS011;70670;52.476;13.334;2024-03-08T08:15:24;49.95;;;24.17;;
58820;SDS011;70670;52.476;13.334;2024-03-08T08:17:50;47.97;;;22.45;;
58820;SDS011;70670;52.476;13.334;2024-03-08T08:20:17;49.28;;;23.88;;
58820;SDS011;70670;52.476;13.334;2024-03-08T08:22:43;48.22;;;22.42;;
58820;SDS011;70670;52.476;13.334;2024-03-08T08:25:09;53.92;;;23.35;;
58820;SDS011;70670;52.476;13.334;2024-03-08T08:27:38;41.58;;;21.75;;
58820;SDS011;70670;52.476;13.334;2024-03-08T08:30:05;49.30;;;22.52;;
58820;SDS011;70670;52.476;13.334;2024-03-08T08:32:34;42.55;;;20.05;;
58820;SDS011;70670;52.476;13.334;2024-03-08T08:35:01;45.50;;;21.85;;
58820;SDS011;70670;52.476;13.334;2024-03-08T08:37:27;42.95;;;21.20;;
58820;SDS011;70670;52.476;13.334;2024-03-08T08:39:54;38.53;;;21.50;;
58820;SDS011;70670;52.476;13.334;2024-03-08T08:42:19;41.03;;;21.15;;
58820;SDS011;70670;52.476;13.334;2024-03-08T08:44:45;45.83;;;21.33;;
58820;SDS011;70670;52.476;13.334;2024-03-08T08:47:11;38.20;;;20.33;;
58820;SDS011;70670;52.476;13.334;2024-03-08T08:49:38;41.60;;;19.20;;
58820;SDS011;70670;52.476;13.334;2024-03-08T08:52:04;39.80;;;20.10;;
58820;SDS011;70670;52.476;13.334;2024-03-08T08:54:29;41.05;;;19.88;;
58820;SDS011;70670;52.476;13.334;2024-03-08T08:56:56;41.83;;;20.27;;
58820;SDS011;70670;52.476;13.334;2024-03-08T08:59:22;38.88;;;20.25;;
58820;SDS011;70670;52.476;13.334;2024-03-08T09:01:50;37.83;;;19.50;;
58820;SDS011;70670;52.476;13.334;2024-03-08T09:04:19;39.42;;;19.75;;
58820;SDS011;70670;52.476;13.334;2024-03-08T09:06:44;36.20;;;20.35;;
58820;SDS011;70670;52.476;13.334;2024-03-08T09:09:10;39.63;;;20.17;;
58820;SDS011;70670;52.476;13.334;2024-03-08T09:11:38;38.70;;;20.23;;
58820;SDS011;70670;52.476;13.334;2024-03-08T09:14:08;40.05;;;20.13;;
58820;SDS011;70670;52.476;13.334;2024-03-08T09:16:34;40.20;;;20.30;;
58820;SDS011;70670;52.476;13.334;2024-03-08T09:18:59;37.53;;;19.85;;
58820;SDS011;70670;52.476;13.334;2024-03-08T09:21:25;37.95;;;19.83;;
58820;SDS011;70670;52.476;13.334;2024-03-08T09:23:52;38.28;;;19.67;;
58820;SDS011;70670;52.476;13.334;2024-03-08T09:26:18;37.65;;;20.65;;
58820;SDS011;70670;52.476;13.334;2024-03-08T09:28:44;36.20;;;20.85;;
58820;SDS011;70670;52.476;13.334;2024-03-08T09:31:10;39.53;;;20.75;;
58820;SDS011;70670;52.476;13.334;2024-03-08T09:33:37;41.33;;;20.77;;
58820;SDS011;70670;52.476;13.334;2024-03-08T09:36:05;41.75;;;21.65;;
58820;SDS011;70670;52.476;13.334;2024-03-08T09:38:33;39.65;;;20.00;;
58820;SDS011;70670;52.476;13.334;2024-03-08T09:40:59;35.90;;;20.30;;
58820;SDS011;70670;52.476;13.334;2024-03-08T09:43:29;42.00;;;20.52;;
58820;SDS011;70670;52.476;13.334;2024-03-08T09:45:55;35.92;;;18.50;;
58820;SDS011;70670;52.476;13.334;2024-03-08T09:48:23;34.08;;;18.67;;
58820;SDS011;70670;52.476;13.334;2024-03-08T09:50:51;36.05;;;19.60;;
58820;SDS011;70670;52.476;13.334;2024-03-08T09:53:16;32.92;;;19.02;;
58820;SDS011;70670;52.476;13.334;2024-03-08T09:55:42;33.50;;;18.10;;
58820;SDS011;70670;52.476;13.334;2024-03-08T09:58:13;35.42;;;18.65;;
58820;SDS011;70670;52.476;13.334;2024-03-08T10:01:01;32.60;;;17.80;;
58820;SDS011;70670;52.476;13.334;2024-03-08T10:03:30;35.13;;;17.73;;
58820;SDS011;70670;52.476;13.334;2024-03-08T10:05:57;33.58;;;17.77;;
58820;SDS011;70670;52.476;13.334;2024-03-08T10:08:26;33.87;;;17.20;;
58820;SDS011;70670;52.476;13.334;2024-03-08T10:10:54;32.80;;;17.63;;
58820;SDS011;70670;52.476;13.334;2024-03-08T10:13:21;32.33;;;17.40;;
58820;SDS011;70670;52.476;13.334;2024-03-08T10:15:46;38.05;;;17.80;;
58820;SDS011;70670;52.476;13.334;2024-03-08T10:18:12;32.22;;;17.73;;
58820;SDS011;70670;52.476;13.334;2024-03-08T10:20:37;35.25;;;17.15;;
58820;SDS011;70670;52.476;13.334;2024-03-08T10:23:03;34.47;;;16.63;;
58820;SDS011;70670;52.476;13.334;2024-03-08T10:25:30;32.35;;;15.98;;
58820;SDS011;70670;52.476;13.334;2024-03-08T10:27:56;31.05;;;15.30;;
58820;SDS011;70670;52.476;13.334;2024-03-08T10:30:22;27.58;;;15.20;;
58820;SDS011;70670;52.476;13.334;2024-03-08T10:32:48;26.33;;;14.38;;
58820;SDS011;70670;52.476;13.334;2024-03-08T10:35:14;30.42;;;14.48;;
58820;SDS011;70670;52.476;13.334;2024-03-08T10:40:18;26.92;;;13.80;;
58820;SDS011;70670;52.476;13.334;2024-03-08T10:45:30;24.85;;;13.70;;
58820;SDS011;70670;52.476;13.334;2024-03-08T10:50:37;24.45;;;13.40;;
58820;SDS011;70670;52.476;13.334;2024-03-08T10:53:04;24.73;;;13.23;;
58820;SDS011;70670;52.476;13.334;2024-03-08T10:55:31;27.02;;;13.88;;
58820;SDS011;70670;52.476;13.334;2024-03-08T10:57:59;22.95;;;12.98;;
58820;SDS011;70670;52.476;13.334;2024-03-08T11:00:25;23.25;;;13.00;;
58820;SDS011;70670;52.476;13.334;2024-03-08T11:02:57;21.55;;;12.55;;
58820;SDS011;70670;52.476;13.334;2024-03-08T11:05:32;25.98;;;12.45;;
58820;SDS011;70670;52.476;13.334;2024-03-08T11:08:25;23.35;;;12.80;;
58820;SDS011;70670;52.476;13.334;2024-03-08T11:10:53;21.52;;;12.25;;
58820;SDS011;70670;52.476;13.334;2024-03-08T11:13:36;21.63;;;11.98;;
58820;SDS011;70670;52.476;13.334;2024-03-08T11:16:02;23.83;;;11.95;;
58820;SDS011;70670;52.476;13.334;2024-03-08T11:18:33;24.45;;;12.20;;
58820;SDS011;70670;52.476;13.334;2024-03-08T11:21:02;20.15;;;11.98;;
58820;SDS011;70670;52.476;13.334;2024-03-08T11:23:31;23.20;;;11.43;;
58820;SDS011;70670;52.476;13.334;2024-03-08T11:25:56;25.48;;;12.05;;
58820;SDS011;70670;52.476;13.334;2024-03-08T11:28:23;20.33;;;12.73;;
58820;SDS011;70670;52.476;13.334;2024-03-08T11:33:27;23.42;;;12.52;;
58820;SDS011;70670;52.476;13.334;2024-03-08T11:36:12;21.45;;;12.15;;
58820;SDS011;70670;52.476;13.334;2024-03-08T11:38:45;25.83;;;12.90;;
58820;SDS011;70670;52.476;13.334;2024-03-08T11:41:32;21.65;;;12.05;;
58820;SDS011;70670;52.476;13.334;2024-03-08T11:44:02;23.15;;;12.57;;
58820;SDS011;70670;52.476;13.334;2024-03-08T11:46:32;24.00;;;13.05;;
58820;SDS011;70670;52.476;13.334;2024-03-08T11:48:59;27.25;;;13.40;;
58820;SDS011;70670;52.476;13.334;2024-03-08T11:51:26;23.92;;;13.40;;
58820;SDS011;70670;52.476;13.334;2024-03-08T11:53:52;22.55;;;13.45;;
58820;SDS011;70670;52.476;13.334;2024-03-08T11:56:18;21.92;;;12.50;;
58820;SDS011;70670;52.476;13.334;2024-03-08T11:58:52;21.42;;;12.23;;
58820;SDS011;70670;52.476;13.334;2024-03-08T12:01:22;24.27;;;13.32;;
58820;SDS011;70670;52.476;13.334;2024-03-08T12:03:55;24.30;;;13.70;;
58820;SDS011;70670;52.476;13.334;2024-03-08T12:06:25;25.80;;;14.05;;
58820;SDS011;70670;52.476;13.334;2024-03-08T12:08:52;21.98;;;13.02;;
58820;SDS011;70670;52.476;13.334;2024-03-08T12:11:19;24.92;;;12.95;;
58820;SDS011;70670;52.476;13.334;2024-03-08T12:13:48;20.17;;;12.10;;
58820;SDS011;70670;52.476;13.334;2024-03-08T12:16:17;21.38;;;12.57;;
58820;SDS011;70670;52.476;13.334;2024-03-08T12:18:50;20.45;;;11.40;;
58820;SDS011;70670;52.476;13.334;2024-03-08T12:21:17;20.38;;;12.27;;
58820;SDS011;70670;52.476;13.334;2024-03-08T12:23:46;20.52;;;11.35;;
58820;SDS011;70670;52.476;13.334;2024-03-08T12:26:16;21.27;;;11.25;;
58820;SDS011;70670;52.476;13.334;2024-03-08T12:28:48;21.40;;;10.60;;
58820;SDS011;70670;52.476;13.334;2024-03-08T12:31:14;17.15;;;10.63;;
58820;SDS011;70670;52.476;13.334;2024-03-08T12:33:54;20.23;;;10.35;;
58820;SDS011;70670;52.476;13.334;2024-03-08T12:36:24;17.15;;;10.57;;
58820;SDS011;70670;52.476;13.334;2024-03-08T12:38:50;20.17;;;11.90;;
58820;SDS011;70670;52.476;13.334;2024-03-08T12:41:16;22.45;;;11.52;;
58820;SDS011;70670;52.476;13.334;2024-03-08T12:43:44;24.52;;;14.80;;
58820;SDS011;70670;52.476;13.334;2024-03-08T12:48:48;26.73;;;14.65;;
58820;SDS011;70670;52.476;13.334;2024-03-08T12:51:13;24.25;;;12.82;;
58820;SDS011;70670;52.476;13.334;2024-03-08T12:53:42;20.98;;;12.32;;
58820;SDS011;70670;52.476;13.334;2024-03-08T12:56:11;21.45;;;12.82;;
58820;SDS011;70670;52.476;13.334;2024-03-08T12:58:37;29.55;;;14.55;;
58820;SDS011;70670;52.476;13.334;2024-03-08T13:01:06;23.80;;;14.57;;
58820;SDS011;70670;52.476;13.334;2024-03-08T13:03:33;26.65;;;15.02;;
58820;SDS011;70670;52.476;13.334;2024-03-08T13:06:01;26.92;;;15.38;;
58820;SDS011;70670;52.476;13.334;2024-03-08T13:08:28;34.45;;;14.90;;
58820;SDS011;70670;52.476;13.334;2024-03-08T13:10:54;28.55;;;15.23;;
58820;SDS011;70670;52.476;13.334;2024-03-08T13:13:20;25.23;;;14.73;;
58820;SDS011;70670;52.476;13.334;2024-03-08T13:15:46;24.55;;;15.48;;
58820;SDS011;70670;52.476;13.334;2024-03-08T13:18:11;27.90;;;15.40;;
58820;SDS011;70670;52.476;13.334;2024-03-08T13:20:37;26.50;;;15.48;;
58820;SDS011;70670;52.476;13.334;2024-03-08T13:23:04;25.80;;;15.65;;
58820;SDS011;70670;52.476;13.334;2024-03-08T13:25:30;26.50;;;15.20;;
58820;SDS011;70670;52.476;13.334;2024-03-08T13:27:56;26.33;;;15.50;;
58820;SDS011;70670;52.476;13.334;2024-03-08T13:30:24;25.80;;;13.88;;
58820;SDS011;70670;52.476;13.334;2024-03-08T13:32:52;27.52;;;15.20;;
58820;SDS011;70670;52.476;13.334;2024-03-08T13:35:18;25.73;;;15.45;;
58820;SDS011;70670;52.476;13.334;2024-03-08T13:37:49;31.25;;;16.73;;
58820;SDS011;70670;52.476;13.334;2024-03-08T13:40:16;27.83;;;15.13;;
58820;SDS011;70670;52.476;13.334;2024-03-08T13:42:45;29.98;;;15.68;;
58820;SDS011;70670;52.476;13.334;2024-03-08T13:45:12;27.88;;;15.13;;
58820;SDS011;70670;52.476;13.334;2024-03-08T13:47:38;25.13;;;14.63;;
58820;SDS011;70670;52.476;13.334;2024-03-08T13:50:08;26.15;;;14.85;;
58820;SDS011;70670;52.476;13.334;2024-03-08T13:52:37;28.35;;;15.05;;
58820;SDS011;70670;52.476;13.334;2024-03-08T13:55:04;27.42;;;15.07;;
58820;SDS011;70670;52.476;13.334;2024-03-08T13:57:31;25.02;;;15.02;;
58820;SDS011;70670;52.476;13.334;2024-03-08T13:59:57;23.08;;;15.05;;
58820;SDS011;70670;52.476;13.334;2024-03-08T14:02:23;23.27;;;14.27;;
58820;SDS011;70670;52.476;13.334;2024-03-08T14:04:53;25.75;;;14.02;;
58820;SDS011;70670;52.476;13.334;2024-03-08T14:07:20;20.77;;;13.48;;
58820;SDS011;70670;52.476;13.334;2024-03-08T14:09:46;20.13;;;12.40;;
58820;SDS011;70670;52.476;13.334;2024-03-08T14:12:11;22.20;;;12.73;;
58820;SDS011;70670;52.476;13.334;2024-03-08T14:14:37;20.15;;;13.07;;
58820;SDS011;70670;52.476;13.334;2024-03-08T14:17:03;20.63;;;13.60;;
58820;SDS011;70670;52.476;13.334;2024-03-08T14:19:29;22.48;;;12.65;;
58820;SDS011;70670;52.476;13.334;2024-03-08T14:21:56;21.73;;;12.77;;
58820;SDS011;70670;52.476;13.334;2024-03-08T14:24:25;20.38;;;12.27;;
58820;SDS011;70670;52.476;13.334;2024-03-08T14:26:51;25.73;;;12.82;;
58820;SDS011;70670;52.476;13.334;2024-03-08T14:29:17;19.00;;;12.25;;